createdAt,value
2018-01-10T00:00:10.682Z,30.50
2018-01-10T00:01:10.658Z,32.50
2018-01-10T00:02:10.552Z,31.70
2018-01-10T00:03:10.486Z,32.20
2018-01-10T00:04:10.420Z,32.70
2018-01-10T00:05:10.355Z,31.50
2018-01-10T00:06:10.291Z,31.30
2018-01-10T00:07:10.224Z,30.20
2018-01-10T00:08:10.159Z,29.80
2018-01-10T00:09:10.093Z,30.10
2018-01-10T00:10:10.028Z,30.10
2018-01-10T00:11:09.962Z,32.10
2018-01-10T00:12:09.895Z,27.30
2018-01-10T00:13:09.831Z,30.80
2018-01-10T00:14:09.767Z,27.20
2018-01-10T00:15:09.699Z,27.90
2018-01-10T00:16:09.633Z,29.20
2018-01-10T00:17:09.568Z,29.60
2018-01-10T00:18:09.501Z,29.30
2018-01-10T00:19:09.438Z,29.80
2018-01-10T00:20:09.370Z,29.70
2018-01-10T00:21:09.306Z,29.30
2018-01-10T00:22:09.240Z,29.90
2018-01-10T00:23:09.174Z,30.00
2018-01-10T00:24:09.106Z,29.10
2018-01-10T00:25:09.044Z,27.00
2018-01-10T00:26:08.978Z,28.10
2018-01-10T00:27:08.911Z,26.70
2018-01-10T00:28:08.846Z,26.70
2018-01-10T00:29:08.780Z,26.50
2018-01-10T00:30:08.714Z,28.70
2018-01-10T00:31:08.650Z,28.00
2018-01-10T00:32:08.582Z,26.80
2018-01-10T00:33:08.517Z,28.90
2018-01-10T00:34:08.451Z,28.70
2018-01-10T00:35:08.386Z,23.20
2018-01-10T00:36:08.319Z,24.20
2018-01-10T00:37:08.254Z,27.00
2018-01-10T00:38:08.189Z,25.40
2018-01-10T00:39:08.122Z,25.50
2018-01-10T00:40:08.056Z,27.80
2018-01-10T00:41:07.990Z,27.50
2018-01-10T00:42:07.925Z,27.70
2018-01-10T00:43:07.860Z,25.20
2018-01-10T00:44:07.793Z,26.60
2018-01-10T00:45:07.728Z,25.80
2018-01-10T00:46:07.662Z,26.50
2018-01-10T00:47:07.595Z,26.70
2018-01-10T00:48:07.531Z,26.90
2018-01-10T00:49:07.464Z,26.90
2018-01-10T00:50:07.400Z,31.20
2018-01-10T00:51:07.333Z,28.40
2018-01-10T00:52:07.267Z,32.40
2018-01-10T00:53:07.200Z,32.70
2018-01-10T00:54:07.135Z,34.90
2018-01-10T00:55:07.069Z,33.50
2018-01-10T00:56:07.004Z,33.90
2018-01-10T00:57:06.937Z,34.80
2018-01-10T00:58:06.871Z,34.90
2018-01-10T00:59:06.809Z,38.20
2018-01-10T01:00:06.739Z,34.90
2018-01-10T01:01:06.675Z,34.00
2018-01-10T01:02:06.611Z,32.80
2018-01-10T01:03:06.587Z,33.20
2018-01-10T01:04:06.480Z,32.70
2018-01-10T01:05:06.412Z,32.90
2018-01-10T01:06:06.346Z,32.30
2018-01-10T01:07:06.280Z,31.00
2018-01-10T01:08:06.213Z,32.70
2018-01-10T01:09:06.150Z,33.20
2018-01-10T01:10:06.084Z,32.90
2018-01-10T01:11:06.018Z,33.70
2018-01-10T01:12:05.951Z,31.30
2018-01-10T01:13:05.887Z,30.00
2018-01-10T01:14:05.820Z,32.50
2018-01-10T01:15:05.754Z,31.40
2018-01-10T01:16:05.688Z,31.40
2018-01-10T01:17:05.662Z,30.10
2018-01-10T01:18:05.557Z,30.50
2018-01-10T01:19:05.491Z,29.40
2018-01-10T01:20:05.426Z,28.80
2018-01-10T01:21:05.361Z,30.40
2018-01-10T01:22:05.297Z,28.40
2018-01-10T01:23:05.230Z,27.90
2018-01-10T01:24:05.163Z,28.20
2018-01-10T01:25:05.099Z,27.70
2018-01-10T01:26:05.035Z,26.50
2018-01-10T01:27:04.968Z,29.30
2018-01-10T01:28:04.903Z,27.60
2018-01-10T01:29:04.837Z,26.80
2018-01-10T01:30:04.776Z,25.60
2018-01-10T01:31:04.707Z,26.10
2018-01-10T01:32:04.640Z,26.00
2018-01-10T01:33:04.574Z,25.20
2018-01-10T01:34:04.509Z,23.50
2018-01-10T01:35:04.446Z,24.70
2018-01-10T01:36:04.378Z,25.40
2018-01-10T01:37:04.313Z,24.40
2018-01-10T01:38:04.248Z,23.40
2018-01-10T01:39:04.183Z,24.30
2018-01-10T01:40:04.118Z,24.10
2018-01-10T01:41:04.052Z,22.70
2018-01-10T01:42:03.989Z,22.20
2018-01-10T01:43:03.922Z,21.70
2018-01-10T01:44:03.855Z,24.60
2018-01-10T01:45:03.791Z,25.00
2018-01-10T01:46:03.727Z,24.50
2018-01-10T01:47:03.661Z,23.00
2018-01-10T01:48:03.606Z,22.30
2018-01-10T01:49:03.529Z,22.40
2018-01-10T01:50:03.464Z,22.30
2018-01-10T01:51:03.399Z,22.30
2018-01-10T01:52:03.336Z,22.70
2018-01-10T01:53:03.267Z,23.40
2018-01-10T01:54:03.202Z,25.40
2018-01-10T01:55:03.138Z,22.10
2018-01-10T01:56:03.072Z,23.20
2018-01-10T01:57:03.010Z,21.80
2018-01-10T01:58:02.940Z,22.70
2018-01-10T01:59:02.875Z,23.90
2018-01-10T02:00:02.809Z,22.30
2018-01-10T02:01:02.745Z,21.90
2018-01-10T02:02:02.678Z,22.20
2018-01-10T02:03:02.615Z,22.80
2018-01-10T02:04:02.549Z,23.30
2018-01-10T02:05:02.483Z,24.00
2018-01-10T02:06:02.417Z,23.70
2018-01-10T02:07:02.353Z,22.30
2018-01-10T02:08:02.286Z,20.50
2018-01-10T02:09:02.220Z,19.80
2018-01-10T02:10:02.158Z,20.80
2018-01-10T02:11:02.091Z,22.40
2018-01-10T02:12:02.026Z,22.70
2018-01-10T02:13:01.960Z,20.70
2018-01-10T02:14:01.895Z,20.80
2018-01-10T02:15:01.829Z,21.10
2018-01-10T02:16:01.764Z,21.10
2018-01-10T02:17:01.698Z,21.80
2018-01-10T02:18:01.634Z,22.80
2018-01-10T02:19:01.568Z,22.90
2018-01-10T02:20:01.503Z,22.20
2018-01-10T02:21:01.639Z,21.50
2018-01-10T02:22:01.372Z,24.10
2018-01-10T02:23:01.310Z,23.20
2018-01-10T02:24:01.241Z,24.00
2018-01-10T02:25:01.176Z,22.60
2018-01-10T02:26:01.111Z,20.90
2018-01-10T02:27:01.047Z,19.90
2018-01-10T02:28:00.978Z,21.00
2018-01-10T02:29:00.915Z,19.10
2018-01-10T02:30:00.851Z,21.10
2018-01-10T02:31:00.786Z,21.00
2018-01-10T02:32:00.721Z,20.20
2018-01-10T02:33:00.653Z,20.30
2018-01-10T02:34:00.590Z,19.00
2018-01-10T02:35:00.524Z,21.00
2018-01-10T02:36:00.460Z,21.80
2018-01-10T02:37:00.395Z,21.50
2018-01-10T02:38:00.328Z,22.30
2018-01-10T02:40:00.198Z,21.50
2018-01-10T02:41:00.134Z,20.30
2018-01-10T02:42:00.069Z,20.70
2018-01-10T02:43:00.010Z,19.90
2018-01-10T02:43:59.937Z,22.50
2018-01-10T02:44:59.872Z,21.10
2018-01-10T02:45:59.808Z,21.90
2018-01-10T02:46:59.741Z,22.80
2018-01-10T02:47:59.675Z,22.20
2018-01-10T02:48:59.610Z,23.70
2018-01-10T02:49:59.546Z,22.50
2018-01-10T02:50:59.480Z,21.30
2018-01-10T02:51:59.415Z,22.10
2018-01-10T02:52:59.352Z,24.70
2018-01-10T02:53:59.288Z,22.40
2018-01-10T02:54:59.220Z,23.00
2018-01-10T02:55:59.155Z,23.50
2018-01-10T02:56:59.091Z,23.10
2018-01-10T02:57:59.025Z,23.30
2018-01-10T02:58:58.960Z,24.00
2018-01-10T02:59:58.893Z,22.70
2018-01-10T03:00:58.828Z,23.30
2018-01-10T03:01:58.764Z,21.80
2018-01-10T03:02:58.700Z,22.00
2018-01-10T03:03:58.633Z,23.30
2018-01-10T03:04:58.567Z,21.80
2018-01-10T03:05:58.502Z,22.10
2018-01-10T03:06:58.440Z,22.30
2018-01-10T03:07:58.373Z,22.90
2018-01-10T03:08:58.306Z,22.00
2018-01-10T03:09:58.242Z,22.10
2018-01-10T03:10:58.178Z,22.40
2018-01-10T03:11:58.111Z,22.30
2018-01-10T03:12:58.046Z,22.30
2018-01-10T03:13:57.981Z,21.60
2018-01-10T03:14:57.916Z,20.80
2018-01-10T03:15:57.851Z,22.00
2018-01-10T03:16:57.785Z,18.80
2018-01-10T03:17:57.726Z,20.00
2018-01-10T03:18:57.657Z,20.20
2018-01-10T03:19:57.590Z,18.80
2018-01-10T03:20:57.525Z,18.20
2018-01-10T03:21:57.460Z,19.50
2018-01-10T03:22:57.396Z,19.00
2018-01-10T03:23:57.329Z,18.80
2018-01-10T03:24:57.265Z,16.60
2018-01-10T03:25:57.246Z,18.10
2018-01-10T03:26:57.137Z,17.10
2018-01-10T03:27:57.071Z,16.60
2018-01-10T03:28:57.005Z,16.90
2018-01-10T03:29:56.941Z,16.20
2018-01-10T03:30:56.878Z,16.80
2018-01-10T03:31:56.809Z,16.70
2018-01-10T03:32:56.745Z,16.70
2018-01-10T03:33:56.681Z,17.30
2018-01-10T03:34:56.617Z,16.30
2018-01-10T03:35:56.550Z,18.10
2018-01-10T03:36:56.485Z,15.90
2018-01-10T03:37:56.421Z,15.40
2018-01-10T03:38:56.358Z,14.80
2018-01-10T03:39:56.291Z,14.60
2018-01-10T03:40:56.228Z,13.80
2018-01-10T03:41:56.163Z,12.70
2018-01-10T03:42:56.097Z,12.00
2018-01-10T03:43:56.033Z,11.90
2018-01-10T03:44:55.968Z,12.30
2018-01-10T03:45:55.902Z,11.90
2018-01-10T03:46:55.838Z,11.30
2018-01-10T03:47:55.772Z,11.40
2018-01-10T03:48:55.708Z,11.10
2018-01-10T03:49:55.642Z,10.90
2018-01-10T03:50:55.578Z,9.40
2018-01-10T03:51:55.523Z,10.00
2018-01-10T03:52:55.448Z,9.60
2018-01-10T03:53:55.383Z,10.20
2018-01-10T03:54:55.320Z,9.60
2018-01-10T03:55:55.253Z,9.80
2018-01-10T03:56:55.188Z,9.80
2018-01-10T03:57:55.124Z,9.50
2018-01-10T03:58:55.062Z,9.50
2018-01-10T03:59:54.993Z,9.90
2018-01-10T04:00:54.979Z,10.50
2018-01-10T04:01:54.865Z,9.70
2018-01-10T04:02:54.800Z,11.20
2018-01-10T04:03:54.735Z,10.20
2018-01-10T04:04:54.672Z,10.20
2018-01-10T04:05:54.609Z,10.90
2018-01-10T04:06:54.539Z,11.10
2018-01-10T04:07:54.477Z,11.70
2018-01-10T04:08:54.411Z,11.60
2018-01-10T04:09:54.347Z,11.30
2018-01-10T04:10:54.282Z,11.50
2018-01-10T04:11:54.219Z,11.60
2018-01-10T04:12:54.152Z,11.60
2018-01-10T04:13:54.087Z,12.00
2018-01-10T04:14:54.025Z,11.50
2018-01-10T04:15:53.957Z,11.00
2018-01-10T04:16:53.893Z,12.70
2018-01-10T04:17:53.828Z,14.10
2018-01-10T04:18:53.764Z,14.30
2018-01-10T04:19:53.702Z,14.00
2018-01-10T04:20:53.634Z,14.40
2018-01-10T04:21:53.570Z,14.30
2018-01-10T04:22:53.505Z,15.00
2018-01-10T04:23:53.439Z,15.90
2018-01-10T04:24:53.373Z,16.50
2018-01-10T04:25:53.310Z,16.50
2018-01-10T04:26:53.247Z,17.30
2018-01-10T04:27:53.180Z,18.30
2018-01-10T04:28:53.115Z,18.30
2018-01-10T04:29:53.050Z,18.90
2018-01-10T04:30:52.987Z,19.00
2018-01-10T04:31:52.921Z,20.80
2018-01-10T04:32:52.857Z,21.50
2018-01-10T04:33:52.793Z,21.10
2018-01-10T04:34:52.727Z,22.10
2018-01-10T04:35:52.662Z,22.60
2018-01-10T04:36:52.598Z,22.00
2018-01-10T04:37:52.534Z,21.20
2018-01-10T04:38:52.470Z,22.50
2018-01-10T04:39:52.404Z,21.40
2018-01-10T04:40:52.342Z,21.40
2018-01-10T04:41:52.274Z,22.00
2018-01-10T04:42:52.211Z,21.10
2018-01-10T04:43:52.145Z,21.60
2018-01-10T04:44:52.081Z,21.20
2018-01-10T04:45:52.016Z,22.10
2018-01-10T04:46:51.952Z,22.30
2018-01-10T04:47:51.888Z,21.80
2018-01-10T04:48:51.822Z,21.40
2018-01-10T04:49:51.758Z,22.00
2018-01-10T04:50:51.693Z,22.50
2018-01-10T04:51:51.630Z,22.40
2018-01-10T04:52:51.568Z,20.90
2018-01-10T04:53:51.498Z,22.00
2018-01-10T04:54:51.433Z,21.20
2018-01-10T04:55:51.370Z,22.80
2018-01-10T04:56:51.304Z,21.30
2018-01-10T04:57:51.240Z,21.60
2018-01-10T04:58:51.174Z,22.10
2018-01-10T04:59:51.111Z,22.90
2018-01-10T05:00:51.082Z,22.40
2018-01-10T05:01:50.981Z,22.10
2018-01-10T05:02:50.917Z,21.80
2018-01-10T05:03:50.852Z,22.00
2018-01-10T05:04:50.787Z,21.90
2018-01-10T05:05:50.743Z,22.60
2018-01-10T05:06:50.657Z,22.50
2018-01-10T05:07:50.593Z,22.00
2018-01-10T05:08:50.528Z,22.40
2018-01-10T05:09:50.466Z,22.50
2018-01-10T05:10:50.400Z,22.30
2018-01-10T05:11:50.333Z,21.70
2018-01-10T05:12:50.270Z,22.80
2018-01-10T05:13:50.205Z,23.90
2018-01-10T05:14:50.145Z,23.00
2018-01-10T05:15:50.074Z,22.60
2018-01-10T05:16:50.017Z,23.40
2018-01-10T05:17:49.947Z,23.60
2018-01-10T05:18:49.883Z,21.70
2018-01-10T05:19:49.818Z,23.20
2018-01-10T05:20:49.752Z,23.10
2018-01-10T05:21:49.688Z,21.30
2018-01-10T05:22:49.624Z,19.70
2018-01-10T05:23:49.557Z,20.60
2018-01-10T05:24:49.498Z,22.70
2018-01-10T05:25:49.431Z,22.80
2018-01-10T05:26:49.367Z,21.90
2018-01-10T05:27:49.314Z,20.30
2018-01-10T05:28:49.236Z,19.00
2018-01-10T05:29:49.174Z,19.50
2018-01-10T05:30:49.109Z,20.90
2018-01-10T05:31:49.044Z,20.90
2018-01-10T05:32:48.981Z,20.50
2018-01-10T05:33:48.914Z,22.20
2018-01-10T05:34:48.849Z,20.00
2018-01-10T05:35:48.786Z,20.80
2018-01-10T05:36:48.721Z,19.40
2018-01-10T05:37:48.657Z,21.80
2018-01-10T05:38:48.592Z,23.40
2018-01-10T05:39:48.528Z,23.10
2018-01-10T05:40:48.462Z,22.80
2018-01-10T05:41:48.399Z,21.40
2018-01-10T05:42:48.333Z,22.20
2018-01-10T05:43:48.268Z,21.80
2018-01-10T05:44:48.204Z,21.30
2018-01-10T05:45:48.140Z,21.40
2018-01-10T05:46:48.076Z,19.80
2018-01-10T05:47:48.010Z,22.30
2018-01-10T05:48:47.946Z,21.20
2018-01-10T05:49:47.881Z,20.30
2018-01-10T05:50:47.816Z,21.70
2018-01-10T05:51:47.753Z,19.80
2018-01-10T05:52:47.688Z,21.60
2018-01-10T05:53:47.625Z,21.80
2018-01-10T05:54:47.655Z,21.40
2018-01-10T05:55:47.494Z,24.10
2018-01-10T05:56:47.430Z,21.00
2018-01-10T05:57:47.365Z,19.40
2018-01-10T05:58:47.301Z,19.50
2018-01-10T05:59:47.236Z,20.00
2018-01-10T06:00:47.172Z,19.90
2018-01-10T06:01:47.107Z,21.40
2018-01-10T06:02:47.042Z,27.10
2018-01-10T06:03:46.984Z,24.00
2018-01-10T06:04:46.914Z,27.20
2018-01-10T06:05:46.849Z,26.70
2018-01-10T06:06:46.784Z,25.80
2018-01-10T06:07:46.723Z,27.70
2018-01-10T06:08:46.656Z,26.90
2018-01-10T06:09:46.592Z,25.60
2018-01-10T06:10:46.526Z,25.20
2018-01-10T06:11:46.460Z,23.70
2018-01-10T06:12:46.396Z,23.80
2018-01-10T06:13:46.332Z,22.90
2018-01-10T06:14:46.269Z,24.90
2018-01-10T06:15:46.202Z,24.30
2018-01-10T06:16:46.459Z,22.50
2018-01-10T06:17:46.073Z,22.80
2018-01-10T06:18:46.009Z,22.20
2018-01-10T06:19:45.942Z,21.70
2018-01-10T06:20:45.886Z,22.40
2018-01-10T06:21:45.814Z,20.80
2018-01-10T06:22:45.751Z,20.90
2018-01-10T06:23:45.686Z,21.20
2018-01-10T06:24:45.620Z,19.30
2018-01-10T06:25:45.556Z,20.70
2018-01-10T06:26:45.491Z,19.60
2018-01-10T06:27:45.426Z,19.90
2018-01-10T06:28:45.361Z,21.20
2018-01-10T06:29:45.297Z,20.80
2018-01-10T06:30:45.232Z,20.40
2018-01-10T06:31:45.167Z,21.40
2018-01-10T06:32:45.103Z,19.50
2018-01-10T06:33:45.038Z,20.00
2018-01-10T06:34:44.972Z,20.00
2018-01-10T06:35:44.907Z,20.20
2018-01-10T06:36:44.842Z,20.60
2018-01-10T06:37:44.778Z,20.20
2018-01-10T06:38:44.713Z,18.90
2018-01-10T06:39:44.656Z,19.30
2018-01-10T06:40:44.582Z,18.40
2018-01-10T06:41:44.721Z,19.70
2018-01-10T06:42:44.453Z,18.80
2018-01-10T06:43:44.388Z,18.00
2018-01-10T06:44:44.322Z,17.00
2018-01-10T06:45:44.258Z,17.70
2018-01-10T06:46:44.193Z,17.10
2018-01-10T06:47:44.128Z,16.10
2018-01-10T06:48:44.067Z,16.00
2018-01-10T06:49:43.998Z,15.90
2018-01-10T06:50:43.934Z,15.40
2018-01-10T06:51:43.867Z,16.00
2018-01-10T06:52:43.801Z,15.90
2018-01-10T06:53:43.737Z,16.00
2018-01-10T06:54:43.673Z,15.30
2018-01-10T06:55:43.607Z,15.90
2018-01-10T06:56:43.541Z,15.90
2018-01-10T06:57:43.476Z,15.60
2018-01-10T06:58:43.411Z,15.80
2018-01-10T06:59:43.346Z,16.50
2018-01-10T07:00:43.280Z,15.50
2018-01-10T07:01:43.216Z,15.50
2018-01-10T07:02:43.151Z,15.80
2018-01-10T07:03:43.084Z,16.20
2018-01-10T07:04:43.021Z,16.40
2018-01-10T07:05:42.954Z,16.40
2018-01-10T07:06:42.891Z,17.40
2018-01-10T07:07:42.823Z,16.40
2018-01-10T07:08:42.759Z,15.70
2018-01-10T07:09:42.694Z,15.70
2018-01-10T07:10:42.630Z,16.40
2018-01-10T07:11:42.565Z,16.30
2018-01-10T07:12:42.499Z,16.90
2018-01-10T07:13:42.434Z,17.20
2018-01-10T07:14:42.368Z,17.90
2018-01-10T07:15:42.303Z,17.80
2018-01-10T07:16:42.238Z,17.40
2018-01-10T07:17:42.173Z,17.30
2018-01-10T07:18:42.115Z,17.70
2018-01-10T07:19:42.044Z,17.40
2018-01-10T07:20:41.979Z,17.10
2018-01-10T07:21:41.913Z,16.80
2018-01-10T07:22:41.850Z,17.00
2018-01-10T07:23:41.783Z,15.90
2018-01-10T07:24:41.720Z,16.00
2018-01-10T07:25:41.652Z,16.60
2018-01-10T07:26:41.588Z,17.80
2018-01-10T07:27:41.521Z,15.90
2018-01-10T07:28:41.462Z,15.50
2018-01-10T07:29:41.393Z,16.00
2018-01-10T07:30:41.328Z,16.30
2018-01-10T07:31:41.262Z,16.00
2018-01-10T07:32:41.198Z,15.50
2018-01-10T07:33:41.133Z,15.20
2018-01-10T07:34:41.087Z,13.70
2018-01-10T07:35:41.002Z,15.30
2018-01-10T07:36:40.938Z,14.00
2018-01-10T07:37:40.873Z,14.50
2018-01-10T07:38:40.810Z,13.70
2018-01-10T07:39:40.748Z,15.00
2018-01-10T07:40:40.678Z,14.00
2018-01-10T07:41:40.613Z,14.00
2018-01-10T07:42:40.548Z,14.50
2018-01-10T07:43:40.481Z,13.90
2018-01-10T07:44:40.417Z,14.10
2018-01-10T07:45:40.354Z,13.40
2018-01-10T07:46:40.288Z,13.10
2018-01-10T07:47:40.224Z,12.00
2018-01-10T07:48:40.158Z,11.00
2018-01-10T07:49:40.094Z,12.40
2018-01-10T07:50:40.029Z,11.70
2018-01-10T07:51:39.962Z,12.30
2018-01-10T07:52:39.899Z,11.90
2018-01-10T07:53:39.834Z,11.90
2018-01-10T07:54:39.769Z,14.40
2018-01-10T07:55:39.706Z,14.20
2018-01-10T07:56:39.641Z,13.40
2018-01-10T07:57:39.574Z,14.40
2018-01-10T07:58:39.510Z,14.90
2018-01-10T07:59:39.444Z,13.20
2018-01-10T08:00:39.378Z,13.50
2018-01-10T08:01:39.314Z,12.90
2018-01-10T08:02:39.250Z,13.10
2018-01-10T08:03:39.184Z,14.10
2018-01-10T08:04:39.119Z,13.50
2018-01-10T08:05:39.054Z,13.00
2018-01-10T08:06:38.990Z,13.70
2018-01-10T08:07:38.924Z,12.80
2018-01-10T08:08:38.860Z,13.10
2018-01-10T08:09:38.794Z,11.90
2018-01-10T08:10:38.731Z,12.30
2018-01-10T08:11:38.665Z,12.10
2018-01-10T08:12:38.600Z,12.00
2018-01-10T08:13:38.536Z,12.40
2018-01-10T08:14:38.471Z,13.00
2018-01-10T08:15:38.406Z,11.80
2018-01-10T08:16:38.341Z,12.80
2018-01-10T08:17:38.280Z,11.90
2018-01-10T08:18:38.212Z,12.00
2018-01-10T08:19:38.150Z,11.90
2018-01-10T08:20:38.082Z,11.50
2018-01-10T08:21:38.017Z,11.40
2018-01-10T08:22:37.953Z,11.50
2018-01-10T08:23:37.890Z,11.70
2018-01-10T08:24:37.826Z,11.50
2018-01-10T08:25:37.758Z,10.80
2018-01-10T08:26:37.694Z,11.70
2018-01-10T08:27:37.630Z,12.10
2018-01-10T08:28:37.563Z,12.20
2018-01-10T08:29:37.499Z,11.00
2018-01-10T08:30:37.434Z,11.70
2018-01-10T08:31:37.371Z,11.30
2018-01-10T08:32:37.305Z,11.50
2018-01-10T08:33:37.240Z,12.10
2018-01-10T08:34:37.177Z,11.60
2018-01-10T08:35:37.111Z,11.70
2018-01-10T08:36:37.046Z,11.60
2018-01-10T08:37:36.982Z,12.00
2018-01-10T08:38:36.917Z,11.60
2018-01-10T08:39:36.852Z,12.00
2018-01-10T08:40:36.788Z,11.80
2018-01-10T08:41:36.724Z,13.00
2018-01-10T08:42:36.659Z,12.30
2018-01-10T08:43:36.595Z,12.80
2018-01-10T08:44:36.530Z,13.10
2018-01-10T08:45:36.467Z,12.70
2018-01-10T08:46:36.403Z,12.70
2018-01-10T08:47:36.338Z,12.90
2018-01-10T08:48:36.274Z,13.50
2018-01-10T08:49:36.209Z,13.80
2018-01-10T08:50:36.145Z,13.20
2018-01-10T08:51:36.081Z,14.40
2018-01-10T08:52:36.018Z,13.80
2018-01-10T08:53:35.952Z,14.20
2018-01-10T08:54:35.890Z,14.10
2018-01-10T08:55:35.822Z,14.00
2018-01-10T08:56:35.760Z,13.50
2018-01-10T08:57:35.696Z,13.40
2018-01-10T08:58:35.632Z,13.30
2018-01-10T08:59:35.568Z,14.70
2018-01-10T09:00:35.504Z,14.10
2018-01-10T09:01:35.441Z,14.00
2018-01-10T09:02:35.377Z,14.80
2018-01-10T09:03:35.311Z,14.40
2018-01-10T09:04:35.248Z,15.10
2018-01-10T09:05:35.185Z,14.10
2018-01-10T09:06:35.120Z,13.70
2018-01-10T09:07:35.056Z,13.80
2018-01-10T09:08:34.993Z,13.50
2018-01-10T09:09:34.928Z,12.50
2018-01-10T09:10:34.865Z,12.70
2018-01-10T09:11:34.799Z,12.50
2018-01-10T09:12:34.737Z,12.60
2018-01-10T09:13:34.674Z,12.60
2018-01-10T09:14:34.609Z,11.80
2018-01-10T09:15:34.545Z,11.30
2018-01-10T09:16:34.485Z,12.80
2018-01-10T09:17:34.418Z,11.70
2018-01-10T09:18:34.354Z,12.40
2018-01-10T09:19:34.290Z,12.60
2018-01-10T09:20:34.226Z,12.70
2018-01-10T09:21:34.164Z,12.00
2018-01-10T09:22:34.103Z,12.30
2018-01-10T09:23:34.036Z,12.80
2018-01-10T09:24:33.971Z,13.30
2018-01-10T09:25:33.908Z,12.00
2018-01-10T09:26:33.845Z,11.70
2018-01-10T09:27:33.786Z,11.40
2018-01-10T09:28:33.717Z,12.10
2018-01-10T09:29:33.652Z,12.50
2018-01-10T09:30:33.591Z,13.10
2018-01-10T09:31:33.525Z,13.00
2018-01-10T09:32:33.462Z,12.40
2018-01-10T09:33:33.400Z,11.80
2018-01-10T09:34:33.338Z,12.00
2018-01-10T09:35:33.278Z,11.90
2018-01-10T09:36:33.208Z,11.60
2018-01-10T09:37:33.145Z,11.10
2018-01-10T09:38:33.082Z,11.60
2018-01-10T09:39:33.018Z,11.50
2018-01-10T09:40:32.960Z,11.50
2018-01-10T09:41:32.893Z,10.90
2018-01-10T09:42:32.850Z,10.30
2018-01-10T09:43:32.765Z,9.80
2018-01-10T09:44:32.703Z,11.00
2018-01-10T09:45:32.638Z,10.20
2018-01-10T09:46:32.576Z,8.90
2018-01-10T09:47:32.513Z,10.50
2018-01-10T09:48:32.449Z,9.90
2018-01-10T09:49:32.384Z,11.20
2018-01-10T09:50:32.324Z,10.70
2018-01-10T09:51:32.259Z,9.70
2018-01-10T09:52:32.244Z,10.10
2018-01-10T09:53:32.336Z,9.40
2018-01-10T09:54:32.273Z,10.10
2018-01-10T09:55:32.007Z,10.00
2018-01-10T09:56:31.944Z,9.80
2018-01-10T09:57:31.883Z,9.80
2018-01-10T09:58:31.827Z,9.10
2018-01-10T09:59:31.754Z,10.10
2018-01-10T10:00:31.692Z,9.40
2018-01-10T10:01:31.630Z,9.80
2018-01-10T10:02:31.566Z,8.50
2018-01-10T10:03:31.503Z,8.40
2018-01-10T10:04:31.447Z,8.90
2018-01-10T10:05:31.378Z,8.50
2018-01-10T10:06:31.318Z,8.20
2018-01-10T10:07:31.253Z,7.50
2018-01-10T10:08:31.191Z,8.50
2018-01-10T10:09:31.128Z,8.70
2018-01-10T10:10:31.073Z,7.70
2018-01-10T10:11:31.002Z,7.70
2018-01-10T10:12:30.941Z,7.70
2018-01-10T10:13:30.879Z,7.40
2018-01-10T10:14:30.818Z,7.80
2018-01-10T10:15:30.756Z,7.90
2018-01-10T10:16:30.691Z,7.70
2018-01-10T10:17:30.629Z,8.30
2018-01-10T10:18:30.566Z,7.80
2018-01-10T10:19:30.513Z,8.50
2018-01-10T10:20:30.442Z,8.40
2018-01-10T10:21:30.380Z,7.90
2018-01-10T10:22:30.317Z,7.30
2018-01-10T10:23:30.254Z,7.90
2018-01-10T10:24:30.192Z,7.90
2018-01-10T10:25:30.168Z,7.80
2018-01-10T10:26:30.067Z,8.00
2018-01-10T10:27:30.008Z,7.40
2018-01-10T10:28:29.942Z,7.90
2018-01-10T10:29:29.879Z,7.10
2018-01-10T10:30:29.817Z,7.60
2018-01-10T10:31:29.754Z,7.80
2018-01-10T10:32:29.692Z,7.40
2018-01-10T10:33:29.630Z,7.20
2018-01-10T10:34:29.567Z,7.50
2018-01-10T10:35:29.505Z,7.50
2018-01-10T10:36:29.443Z,7.40
2018-01-10T10:37:29.381Z,7.60
2018-01-10T10:38:29.319Z,7.20
2018-01-10T10:39:29.255Z,7.20
2018-01-10T10:40:29.193Z,7.90
2018-01-10T10:41:29.335Z,7.40
2018-01-10T10:42:29.070Z,7.50
2018-01-10T10:43:29.007Z,8.60
2018-01-10T10:44:28.949Z,8.50
2018-01-10T10:45:28.880Z,8.20
2018-01-10T10:46:28.820Z,8.10
2018-01-10T10:47:28.757Z,8.40
2018-01-10T10:48:28.696Z,7.80
2018-01-10T10:49:28.633Z,8.30
2018-01-10T10:50:28.572Z,7.80
2018-01-10T10:51:28.508Z,8.00
2018-01-10T10:52:28.447Z,8.10
2018-01-10T10:53:28.401Z,7.60
2018-01-10T10:54:28.340Z,7.60
2018-01-10T10:55:28.259Z,7.70
2018-01-10T10:56:28.200Z,7.80
2018-01-10T10:57:28.147Z,7.80
2018-01-10T10:58:28.074Z,8.40
2018-01-10T10:59:28.012Z,7.30
2018-01-10T11:00:27.954Z,7.90
2018-01-10T11:01:27.890Z,8.00
2018-01-10T11:02:27.828Z,8.10
2018-01-10T11:03:27.766Z,7.60
2018-01-10T11:04:27.703Z,7.80
2018-01-10T11:05:27.641Z,7.60
2018-01-10T11:06:27.579Z,8.20
2018-01-10T11:07:27.515Z,7.50
2018-01-10T11:08:27.455Z,8.00
2018-01-10T11:09:27.394Z,7.70
2018-01-10T11:10:27.331Z,8.20
2018-01-10T11:11:27.268Z,8.30
2018-01-10T11:12:27.209Z,8.10
2018-01-10T11:13:27.148Z,8.20
2018-01-10T11:14:27.084Z,8.00
2018-01-10T11:15:27.021Z,8.40
2018-01-10T11:16:26.960Z,7.50
2018-01-10T11:17:26.899Z,8.20
2018-01-10T11:18:26.836Z,7.70
2018-01-10T11:19:26.775Z,8.00
2018-01-10T11:20:26.713Z,7.80
2018-01-10T11:21:26.700Z,9.00
2018-01-10T11:22:26.591Z,7.90
2018-01-10T11:23:26.527Z,7.70
2018-01-10T11:24:26.466Z,8.00
2018-01-10T11:25:26.407Z,8.20
2018-01-10T11:26:26.343Z,7.90
2018-01-10T11:27:26.280Z,7.80
2018-01-10T11:28:26.220Z,7.90
2018-01-10T11:29:26.158Z,8.70
2018-01-10T11:30:26.096Z,7.80
2018-01-10T11:31:26.032Z,8.10
2018-01-10T11:32:25.971Z,8.40
2018-01-10T11:33:25.910Z,7.20
2018-01-10T11:34:25.850Z,8.10
2018-01-10T11:35:25.787Z,7.60
2018-01-10T11:36:25.724Z,7.20
2018-01-10T11:37:25.664Z,7.50
2018-01-10T11:38:25.603Z,8.10
2018-01-10T11:39:25.540Z,8.00
2018-01-10T11:40:25.479Z,7.70
2018-01-10T11:41:25.418Z,7.40
2018-01-10T11:42:25.356Z,7.80
2018-01-10T11:43:25.293Z,7.80
2018-01-10T11:44:25.233Z,7.70
2018-01-10T11:45:25.171Z,7.40
2018-01-10T11:46:25.110Z,7.10
2018-01-10T11:47:25.049Z,7.70
2018-01-10T11:48:24.986Z,7.30
2018-01-10T11:49:24.925Z,7.10
2018-01-10T11:50:24.864Z,6.60
2018-01-10T11:51:24.802Z,6.40
2018-01-10T11:52:24.741Z,7.00
2018-01-10T11:53:24.680Z,6.90
2018-01-10T11:54:24.621Z,6.20
2018-01-10T11:55:24.557Z,6.10
2018-01-10T11:56:24.496Z,6.70
2018-01-10T11:57:24.435Z,6.70
2018-01-10T11:58:24.375Z,6.10
2018-01-10T11:59:24.312Z,6.10
2018-01-10T12:00:24.253Z,6.10
2018-01-10T12:01:24.191Z,6.20
2018-01-10T12:02:24.129Z,6.00
2018-01-10T12:03:24.068Z,6.00
2018-01-10T12:04:24.010Z,5.90
2018-01-10T12:05:23.947Z,5.80
2018-01-10T12:06:23.885Z,6.20
2018-01-10T12:07:23.824Z,5.80
2018-01-10T12:08:23.763Z,6.20
2018-01-10T12:09:23.703Z,6.00
2018-01-10T12:10:23.641Z,6.10
2018-01-10T12:11:23.579Z,6.10
2018-01-10T12:12:23.519Z,6.00
2018-01-10T12:13:23.457Z,5.60
2018-01-10T12:14:23.400Z,6.10
2018-01-10T12:15:23.334Z,6.20
2018-01-10T12:16:23.273Z,5.60
2018-01-10T12:17:23.211Z,5.40
2018-01-10T12:18:23.152Z,5.60
2018-01-10T12:19:23.089Z,5.80
2018-01-10T12:20:23.027Z,5.70
2018-01-10T12:21:22.966Z,5.30
2018-01-10T12:22:22.905Z,5.80
2018-01-10T12:23:22.842Z,5.50
2018-01-10T12:24:22.781Z,5.00
2018-01-10T12:25:22.720Z,5.00
2018-01-10T12:26:22.658Z,4.70
2018-01-10T12:27:22.597Z,5.00
2018-01-10T12:28:22.534Z,5.20
2018-01-10T12:29:22.474Z,5.10
2018-01-10T12:30:22.412Z,5.30
2018-01-10T12:31:22.349Z,5.30
2018-01-10T12:32:22.288Z,5.40
2018-01-10T12:33:22.226Z,5.20
2018-01-10T12:34:22.164Z,5.60
2018-01-10T12:35:22.102Z,5.20
2018-01-10T12:36:22.040Z,4.80
2018-01-10T12:37:21.978Z,4.80
2018-01-10T12:38:21.919Z,4.10
2018-01-10T12:39:21.856Z,4.80
2018-01-10T12:40:21.792Z,4.20
2018-01-10T12:41:21.734Z,4.10
2018-01-10T12:42:21.671Z,4.30
2018-01-10T12:43:21.608Z,4.30
2018-01-10T12:44:21.544Z,3.90
2018-01-10T12:45:21.482Z,4.70
2018-01-10T12:46:21.422Z,4.30
2018-01-10T12:47:21.362Z,4.30
2018-01-10T12:48:21.297Z,4.20
2018-01-10T12:49:21.235Z,4.20
2018-01-10T12:50:21.172Z,4.30
2018-01-10T12:51:21.110Z,4.00
2018-01-10T12:52:21.047Z,4.20
2018-01-10T12:53:20.985Z,4.10
2018-01-10T12:54:20.922Z,4.20
2018-01-10T12:55:20.860Z,4.20
2018-01-10T12:56:20.797Z,4.40
2018-01-10T12:57:20.736Z,4.00
2018-01-10T12:58:20.674Z,4.30
2018-01-10T12:59:20.611Z,4.40